sensor_id;sensor_type;location;lat;lon;timestamp;pressure;altitude;pressure_sealevel;temperature;humidity
57048;BME280;42934;54.294;18.598;2022-08-21T00:00:37;100450.22;;;22.13;88.36
57048;BME280;42934;54.294;18.598;2022-08-21T00:03:12;100441.38;;;22.12;88.26
57048;BME280;42934;54.294;18.598;2022-08-21T00:05:44;100445.00;;;22.11;88.37
57048;BME280;42934;54.294;18.598;2022-08-21T00:08:14;100438.69;;;22.12;88.42
57048;BME280;42934;54.294;18.598;2022-08-21T00:10:44;100436.72;;;22.14;88.37
57048;BME280;42934;54.294;18.598;2022-08-21T00:13:14;100436.72;;;22.14;88.00
57048;BME280;42934;54.294;18.598;2022-08-21T00:15:48;100437.97;;;22.10;88.04
57048;BME280;42934;54.294;18.598;2022-08-21T00:18:18;100438.06;;;22.09;88.27
57048;BME280;42934;54.294;18.598;2022-08-21T00:20:48;100444.16;;;22.11;88.32
57048;BME280;42934;54.294;18.598;2022-08-21T00:23:17;100440.75;;;22.09;88.19
57048;BME280;42934;54.294;18.598;2022-08-21T00:25:47;100440.91;;;22.07;88.16
57048;BME280;42934;54.294;18.598;2022-08-21T00:28:17;100428.50;;;22.06;88.35
57048;BME280;42934;54.294;18.598;2022-08-21T00:30:48;100430.31;;;22.06;88.39
57048;BME280;42934;54.294;18.598;2022-08-21T00:33:18;100426.69;;;22.07;88.69
57048;BME280;42934;54.294;18.598;2022-08-21T00:35:47;100425.69;;;22.08;88.11
57048;BME280;42934;54.294;18.598;2022-08-21T00:38:16;100433.00;;;22.06;88.32
57048;BME280;42934;54.294;18.598;2022-08-21T00:40:48;100433.88;;;22.06;88.12
57048;BME280;42934;54.294;18.598;2022-08-21T00:43:21;100431.31;;;22.05;88.39
57048;BME280;42934;54.294;18.598;2022-08-21T00:45:53;100433.13;;;22.04;88.41
57048;BME280;42934;54.294;18.598;2022-08-21T00:48:23;100440.31;;;22.04;88.04
57048;BME280;42934;54.294;18.598;2022-08-21T00:50:57;100433.41;;;22.01;87.98
57048;BME280;42934;54.294;18.598;2022-08-21T00:53:27;100435.22;;;22.00;88.32
57048;BME280;42934;54.294;18.598;2022-08-21T00:55:59;100430.84;;;21.99;88.02
57048;BME280;42934;54.294;18.598;2022-08-21T00:58:32;100422.13;;;21.97;88.08
57048;BME280;42934;54.294;18.598;2022-08-21T01:01:07;100420.41;;;21.96;88.24
57048;BME280;42934;54.294;18.598;2022-08-21T01:03:37;100423.06;;;21.96;88.02
57048;BME280;42934;54.294;18.598;2022-08-21T01:06:12;100429.53;;;21.94;88.09
57048;BME280;42934;54.294;18.598;2022-08-21T01:08:42;100420.66;;;21.93;88.00
57048;BME280;42934;54.294;18.598;2022-08-21T01:11:14;100417.28;;;21.91;87.97
57048;BME280;42934;54.294;18.598;2022-08-21T01:13:44;100423.59;;;21.90;87.73
57048;BME280;42934;54.294;18.598;2022-08-21T01:16:18;100423.75;;;21.89;87.83
57048;BME280;42934;54.294;18.598;2022-08-21T01:18:49;100421.19;;;21.87;88.19
57048;BME280;42934;54.294;18.598;2022-08-21T01:21:23;100419.34;;;21.88;87.81
57048;BME280;42934;54.294;18.598;2022-08-21T01:23:56;100419.34;;;21.88;87.87
57048;BME280;42934;54.294;18.598;2022-08-21T01:26:29;100417.41;;;21.90;87.77
57048;BME280;42934;54.294;18.598;2022-08-21T01:29:05;100419.50;;;21.86;87.81
57048;BME280;42934;54.294;18.598;2022-08-21T01:31:36;100412.56;;;21.84;88.01
57048;BME280;42934;54.294;18.598;2022-08-21T01:34:06;100421.31;;;21.86;87.56
57048;BME280;42934;54.294;18.598;2022-08-21T01:36:36;100426.94;;;21.83;87.79
57048;BME280;42934;54.294;18.598;2022-08-21T01:39:06;100414.66;;;21.80;87.74
57048;BME280;42934;54.294;18.598;2022-08-21T01:41:35;100412.94;;;21.79;87.65
57048;BME280;42934;54.294;18.598;2022-08-21T01:44:05;100411.63;;;21.73;87.82
57048;BME280;42934;54.294;18.598;2022-08-21T01:46:34;100421.63;;;21.71;87.83
57048;BME280;42934;54.294;18.598;2022-08-21T01:49:05;100420.88;;;21.69;87.90
57048;BME280;42934;54.294;18.598;2022-08-21T01:51:36;100405.84;;;21.68;87.85
57048;BME280;42934;54.294;18.598;2022-08-21T01:54:05;100405.00;;;21.68;88.02
57048;BME280;42934;54.294;18.598;2022-08-21T01:56:37;100406.69;;;21.69;88.44
57048;BME280;42934;54.294;18.598;2022-08-21T01:59:07;100399.50;;;21.69;88.44
57048;BME280;42934;54.294;18.598;2022-08-21T02:01:37;100400.25;;;21.71;88.12
57048;BME280;42934;54.294;18.598;2022-08-21T02:04:08;100395.75;;;21.72;88.17
57048;BME280;42934;54.294;18.598;2022-08-21T02:06:40;100394.16;;;21.69;88.13
57048;BME280;42934;54.294;18.598;2022-08-21T02:09:11;100399.66;;;21.68;88.25
57048;BME280;42934;54.294;18.598;2022-08-21T02:11:41;100400.34;;;21.70;88.07
57048;BME280;42934;54.294;18.598;2022-08-21T02:14:12;100397.94;;;21.67;87.73
57048;BME280;42934;54.294;18.598;2022-08-21T02:17:00;100401.59;;;21.66;87.80
57048;BME280;42934;54.294;18.598;2022-08-21T02:19:37;100391.03;;;21.64;88.24
57048;BME280;42934;54.294;18.598;2022-08-21T02:22:10;100384.72;;;21.65;88.08
57048;BME280;42934;54.294;18.598;2022-08-21T02:24:39;100390.06;;;21.65;88.23
57048;BME280;42934;54.294;18.598;2022-08-21T02:27:22;100393.56;;;21.66;87.92
57048;BME280;42934;54.294;18.598;2022-08-21T02:29:54;100379.38;;;21.65;87.50
57048;BME280;42934;54.294;18.598;2022-08-21T02:32:25;100385.81;;;21.63;87.45
57048;BME280;42934;54.294;18.598;2022-08-21T02:34:54;100375.75;;;21.55;87.51
57048;BME280;42934;54.294;18.598;2022-08-21T02:37:25;100368.84;;;21.52;88.04
57048;BME280;42934;54.294;18.598;2022-08-21T02:39:54;100369.69;;;21.53;87.87
57048;BME280;42934;54.294;18.598;2022-08-21T02:42:24;100372.59;;;21.50;87.65
57048;BME280;42934;54.294;18.598;2022-08-21T02:44:53;100377.25;;;21.48;87.95
57048;BME280;42934;54.294;18.598;2022-08-21T02:47:22;100365.59;;;21.49;88.12
57048;BME280;42934;54.294;18.598;2022-08-21T02:49:52;100365.00;;;21.45;87.97
57048;BME280;42934;54.294;18.598;2022-08-21T02:52:23;100366.56;;;21.48;88.02
57048;BME280;42934;54.294;18.598;2022-08-21T02:54:53;100363.16;;;21.46;87.84
57048;BME280;42934;54.294;18.598;2022-08-21T02:57:22;100362.44;;;21.44;88.37
57048;BME280;42934;54.294;18.598;2022-08-21T02:59:52;100369.50;;;21.45;88.12
57048;BME280;42934;54.294;18.598;2022-08-21T03:02:21;100361.47;;;21.45;88.08
57048;BME280;42934;54.294;18.598;2022-08-21T03:04:53;100361.59;;;21.43;87.99
57048;BME280;42934;54.294;18.598;2022-08-21T03:07:24;100361.47;;;21.45;88.12
57048;BME280;42934;54.294;18.598;2022-08-21T03:09:54;100365.00;;;21.45;88.19
57048;BME280;42934;54.294;18.598;2022-08-21T03:12:24;100363.16;;;21.46;88.27
57048;BME280;42934;54.294;18.598;2022-08-21T03:14:57;100366.56;;;21.48;88.31
57048;BME280;42934;54.294;18.598;2022-08-21T03:17:26;100363.91;;;21.48;87.92
57048;BME280;42934;54.294;18.598;2022-08-21T03:19:57;100367.53;;;21.47;88.16
57048;BME280;42934;54.294;18.598;2022-08-21T03:22:28;100363.16;;;21.46;88.08
57048;BME280;42934;54.294;18.598;2022-08-21T03:24:58;100365.97;;;21.44;87.94
57048;BME280;42934;54.294;18.598;2022-08-21T03:27:27;100367.66;;;21.45;88.32
57048;BME280;42934;54.294;18.598;2022-08-21T03:29:59;100366.81;;;21.45;88.01
57048;BME280;42934;54.294;18.598;2022-08-21T03:32:28;100366.09;;;21.43;87.74
57048;BME280;42934;54.294;18.598;2022-08-21T03:34:59;100368.75;;;21.43;88.31
57048;BME280;42934;54.294;18.598;2022-08-21T03:37:30;100378.47;;;21.44;88.22
57048;BME280;42934;54.294;18.598;2022-08-21T03:40:00;100378.47;;;21.44;88.15
57048;BME280;42934;54.294;18.598;2022-08-21T03:42:30;100381.13;;;21.44;88.12
57048;BME280;42934;54.294;18.598;2022-08-21T03:45:00;100385.63;;;21.43;88.31
57048;BME280;42934;54.294;18.598;2022-08-21T03:47:29;100372.44;;;21.42;88.36
57048;BME280;42934;54.294;18.598;2022-08-21T03:49:59;100380.44;;;21.42;88.10
57048;BME280;42934;54.294;18.598;2022-08-21T03:52:30;100387.47;;;21.43;88.33
57048;BME280;42934;54.294;18.598;2022-08-21T03:54:59;100385.63;;;21.43;88.00
57048;BME280;42934;54.294;18.598;2022-08-21T03:57:29;100385.03;;;21.40;88.29
57048;BME280;42934;54.294;18.598;2022-08-21T03:59:58;100392.22;;;21.39;88.58
57048;BME280;42934;54.294;18.598;2022-08-21T04:02:27;100385.88;;;21.40;88.27
57048;BME280;42934;54.294;18.598;2022-08-21T04:04:57;100391.13;;;21.42;88.51
57048;BME280;42934;54.294;18.598;2022-08-21T04:07:26;100389.81;;;21.36;88.33
57048;BME280;42934;54.294;18.598;2022-08-21T04:09:57;100392.53;;;21.35;88.55
57048;BME280;42934;54.294;18.598;2022-08-21T04:12:26;100393.53;;;21.33;88.96
57048;BME280;42934;54.294;18.598;2022-08-21T04:14:55;100395.22;;;21.35;88.86
57048;BME280;42934;54.294;18.598;2022-08-21T04:17:25;100393.78;;;21.30;88.80
57048;BME280;42934;54.294;18.598;2022-08-21T04:19:54;100396.47;;;21.30;88.96
57048;BME280;42934;54.294;18.598;2022-08-21T04:22:24;100395.47;;;21.31;89.01
57048;BME280;42934;54.294;18.598;2022-08-21T04:24:53;100396.47;;;21.30;89.04
57048;BME280;42934;54.294;18.598;2022-08-21T04:27:24;100394.53;;;21.32;88.88
57048;BME280;42934;54.294;18.598;2022-08-21T04:29:53;100393.53;;;21.33;88.80
57048;BME280;42934;54.294;18.598;2022-08-21T04:32:23;100402.38;;;21.34;88.76
57048;BME280;42934;54.294;18.598;2022-08-21T04:34:59;100391.84;;;21.32;88.81
57048;BME280;42934;54.294;18.598;2022-08-21T04:37:29;100389.81;;;21.36;89.12
57048;BME280;42934;54.294;18.598;2022-08-21T04:39:58;100391.59;;;21.36;88.82
57048;BME280;42934;54.294;18.598;2022-08-21T04:42:29;100398.03;;;21.33;88.76
57048;BME280;42934;54.294;18.598;2022-08-21T04:44:59;100390.03;;;21.33;89.08
57048;BME280;42934;54.294;18.598;2022-08-21T04:47:28;100392.53;;;21.35;88.84
57048;BME280;42934;54.294;18.598;2022-08-21T04:50:19;100394.75;;;21.29;89.08
57048;BME280;42934;54.294;18.598;2022-08-21T04:53:04;100394.88;;;21.28;89.09
57048;BME280;42934;54.294;18.598;2022-08-21T04:55:34;100402.75;;;21.29;89.39
57048;BME280;42934;54.294;18.598;2022-08-21T04:58:07;100416.84;;;21.31;89.23
57048;BME280;42934;54.294;18.598;2022-08-21T05:00:39;100415.75;;;21.34;89.06
57048;BME280;42934;54.294;18.598;2022-08-21T05:03:10;100418.31;;;21.36;88.90
57048;BME280;42934;54.294;18.598;2022-08-21T05:05:40;100422.69;;;21.37;89.06
57048;BME280;42934;54.294;18.598;2022-08-21T05:08:14;100427.19;;;21.36;88.88
57048;BME280;42934;54.294;18.598;2022-08-21T05:10:45;100419.03;;;21.38;88.92
57048;BME280;42934;54.294;18.598;2022-08-21T05:13:16;100425.22;;;21.38;89.06
57048;BME280;42934;54.294;18.598;2022-08-21T05:15:46;100430.47;;;21.40;88.91
57048;BME280;42934;54.294;18.598;2022-08-21T05:18:15;100424.97;;;21.41;88.98
57048;BME280;42934;54.294;18.598;2022-08-21T05:20:45;100438.47;;;21.40;88.85
57048;BME280;42934;54.294;18.598;2022-08-21T05:23:15;100434.81;;;21.41;89.08
57048;BME280;42934;54.294;18.598;2022-08-21T05:25:44;100435.66;;;21.41;89.00
57048;BME280;42934;54.294;18.598;2022-08-21T05:28:17;100438.31;;;21.41;89.19
57048;BME280;42934;54.294;18.598;2022-08-21T05:30:47;100443.56;;;21.43;89.03
57048;BME280;42934;54.294;18.598;2022-08-21T05:33:16;100442.72;;;21.42;88.74
57048;BME280;42934;54.294;18.598;2022-08-21T05:35:48;100440.88;;;21.43;89.26
57048;BME280;42934;54.294;18.598;2022-08-21T05:38:18;100435.44;;;21.44;89.22
57048;BME280;42934;54.294;18.598;2022-08-21T05:40:47;100438.94;;;21.45;89.06
57048;BME280;42934;54.294;18.598;2022-08-21T05:43:19;100433.59;;;21.45;88.85
57048;BME280;42934;54.294;18.598;2022-08-21T05:45:48;100441.72;;;21.43;89.37
57048;BME280;42934;54.294;18.598;2022-08-21T05:48:20;100444.28;;;21.45;89.25
57048;BME280;42934;54.294;18.598;2022-08-21T05:50:51;100437.97;;;21.46;89.04
57048;BME280;42934;54.294;18.598;2022-08-21T05:53:22;100433.47;;;21.46;89.23
57048;BME280;42934;54.294;18.598;2022-08-21T05:55:52;100439.66;;;21.47;88.90
57048;BME280;42934;54.294;18.598;2022-08-21T05:58:23;100444.16;;;21.46;89.14
57048;BME280;42934;54.294;18.598;2022-08-21T06:00:53;100441.47;;;21.46;88.89
57048;BME280;42934;54.294;18.598;2022-08-21T06:03:24;100439.78;;;21.45;89.01
57048;BME280;42934;54.294;18.598;2022-08-21T06:05:55;100440.63;;;21.46;89.15
57048;BME280;42934;54.294;18.598;2022-08-21T06:08:24;100438.09;;;21.44;88.94
57048;BME280;42934;54.294;18.598;2022-08-21T06:10:55;100438.22;;;21.43;88.97
57048;BME280;42934;54.294;18.598;2022-08-21T06:13:27;100431.03;;;21.43;89.24
57048;BME280;42934;54.294;18.598;2022-08-21T06:16:05;100422.91;;;21.45;89.25
57048;BME280;42934;54.294;18.598;2022-08-21T06:18:36;100423.75;;;21.45;89.38
57048;BME280;42934;54.294;18.598;2022-08-21T06:21:07;100429.84;;;21.47;89.42
57048;BME280;42934;54.294;18.598;2022-08-21T06:23:37;100424.50;;;21.47;89.58
57048;BME280;42934;54.294;18.598;2022-08-21T06:26:07;100416.47;;;21.47;89.68
57048;BME280;42934;54.294;18.598;2022-08-21T06:28:39;100413.66;;;21.49;89.78
57048;BME280;42934;54.294;18.598;2022-08-21T06:31:14;100417.19;;;21.49;89.92
57048;BME280;42934;54.294;18.598;2022-08-21T06:33:44;100421.56;;;21.50;89.90
57048;BME280;42934;54.294;18.598;2022-08-21T06:36:14;100414.41;;;21.51;89.63
57048;BME280;42934;54.294;18.598;2022-08-21T06:38:44;100418.91;;;21.50;89.86
57048;BME280;42934;54.294;18.598;2022-08-21T06:41:19;100417.06;;;21.51;89.64
57048;BME280;42934;54.294;18.598;2022-08-21T06:43:56;100422.53;;;21.49;90.02
57048;BME280;42934;54.294;18.598;2022-08-21T06:46:28;100416.22;;;21.50;90.03
57048;BME280;42934;54.294;18.598;2022-08-21T06:48:58;100422.41;;;21.51;89.78
57048;BME280;42934;54.294;18.598;2022-08-21T06:51:28;100427.63;;;21.52;89.71
57048;BME280;42934;54.294;18.598;2022-08-21T06:53:57;100421.44;;;21.52;90.11
57048;BME280;42934;54.294;18.598;2022-08-21T06:56:27;100433.94;;;21.51;90.19
57048;BME280;42934;54.294;18.598;2022-08-21T06:59:00;100428.72;;;21.50;89.96
57048;BME280;42934;54.294;18.598;2022-08-21T07:01:29;100439.41;;;21.50;90.26
57048;BME280;42934;54.294;18.598;2022-08-21T07:03:59;100442.94;;;21.50;89.91
57048;BME280;42934;54.294;18.598;2022-08-21T07:08:53;100431.53;;;21.48;89.82
57048;BME280;42934;54.294;18.598;2022-08-21T07:11:26;100434.94;;;21.50;89.73
57048;BME280;42934;54.294;18.598;2022-08-21T07:13:55;100445.88;;;21.47;89.88
57048;BME280;42934;54.294;18.598;2022-08-21T07:16:24;100438.94;;;21.45;90.18
57048;BME280;42934;54.294;18.598;2022-08-21T07:18:54;100447.91;;;21.44;90.05
57048;BME280;42934;54.294;18.598;2022-08-21T07:21:24;100442.72;;;21.42;90.05
57048;BME280;42934;54.294;18.598;2022-08-21T07:23:54;100442.81;;;21.41;90.04
57048;BME280;42934;54.294;18.598;2022-08-21T07:26:24;100444.78;;;21.39;89.87
57048;BME280;42934;54.294;18.598;2022-08-21T07:28:54;100449.41;;;21.37;90.20
57048;BME280;42934;54.294;18.598;2022-08-21T07:31:24;100443.28;;;21.35;89.96
57048;BME280;42934;54.294;18.598;2022-08-21T07:33:55;100455.69;;;21.36;90.01
57048;BME280;42934;54.294;18.598;2022-08-21T07:36:24;100444.28;;;21.33;90.15
57048;BME280;42934;54.294;18.598;2022-08-21T07:38:55;100460.31;;;21.33;89.83
57048;BME280;42934;54.294;18.598;2022-08-21T07:41:27;100447.94;;;21.32;89.63
57048;BME280;42934;54.294;18.598;2022-08-21T07:44:00;100459.81;;;21.28;89.64
57048;BME280;42934;54.294;18.598;2022-08-21T07:46:30;100461.75;;;21.26;89.56
57048;BME280;42934;54.294;18.598;2022-08-21T07:49:00;100459.97;;;21.27;89.55
57048;BME280;42934;54.294;18.598;2022-08-21T07:51:31;100462.88;;;21.24;89.58
57048;BME280;42934;54.294;18.598;2022-08-21T07:54:03;100470.00;;;21.23;89.44
57048;BME280;42934;54.294;18.598;2022-08-21T07:56:34;100469.31;;;21.21;89.32
57048;BME280;42934;54.294;18.598;2022-08-21T07:59:04;100468.31;;;21.22;89.62
57048;BME280;42934;54.294;18.598;2022-08-21T08:01:35;100466.50;;;21.23;89.69
57048;BME280;42934;54.294;18.598;2022-08-21T08:04:04;100461.28;;;21.21;89.39
57048;BME280;42934;54.294;18.598;2022-08-21T08:06:34;100455.13;;;21.21;89.55
57048;BME280;42934;54.294;18.598;2022-08-21T08:09:05;100453.28;;;21.21;89.54
57048;BME280;42934;54.294;18.598;2022-08-21T08:11:36;100452.19;;;21.24;89.41
57048;BME280;42934;54.294;18.598;2022-08-21T08:14:09;100461.06;;;21.24;89.58
57048;BME280;42934;54.294;18.598;2022-08-21T08:16:40;100461.91;;;21.25;89.52
57048;BME280;42934;54.294;18.598;2022-08-21T08:19:10;100466.25;;;21.26;89.78
57048;BME280;42934;54.294;18.598;2022-08-21T08:21:40;100461.66;;;21.28;89.63
57048;BME280;42934;54.294;18.598;2022-08-21T08:24:11;100465.06;;;21.30;89.56
57048;BME280;42934;54.294;18.598;2022-08-21T08:26:48;100470.38;;;21.30;89.79
57048;BME280;42934;54.294;18.598;2022-08-21T08:29:21;100465.06;;;21.30;89.58
57048;BME280;42934;54.294;18.598;2022-08-21T08:31:51;100473.16;;;21.28;89.72
57048;BME280;42934;54.294;18.598;2022-08-21T08:34:20;100475.72;;;21.30;89.56
57048;BME280;42934;54.294;18.598;2022-08-21T08:36:52;100467.81;;;21.28;89.84
57048;BME280;42934;54.294;18.598;2022-08-21T08:39:25;100472.91;;;21.31;89.62
57048;BME280;42934;54.294;18.598;2022-08-21T08:42:03;100477.31;;;21.32;89.84
57048;BME280;42934;54.294;18.598;2022-08-21T08:44:57;100471.97;;;21.32;89.79
57048;BME280;42934;54.294;18.598;2022-08-21T08:47:31;100477.16;;;21.34;89.53
57048;BME280;42934;54.294;18.598;2022-08-21T08:50:06;100475.28;;;21.36;89.48
57048;BME280;42934;54.294;18.598;2022-08-21T08:52:41;100475.03;;;21.39;89.58
57048;BME280;42934;54.294;18.598;2022-08-21T08:55:17;100469.53;;;21.41;89.56
57048;BME280;42934;54.294;18.598;2022-08-21T08:57:55;100455.22;;;21.42;89.56
57048;BME280;42934;54.294;18.598;2022-08-21T09:00:25;100456.06;;;21.42;89.43
57048;BME280;42934;54.294;18.598;2022-08-21T09:02:57;100463.09;;;21.43;89.59
57048;BME280;42934;54.294;18.598;2022-08-21T09:05:30;100471.97;;;21.44;89.31
57048;BME280;42934;54.294;18.598;2022-08-21T09:08:15;100460.19;;;21.46;89.54
57048;BME280;42934;54.294;18.598;2022-08-21T09:11:00;100448.53;;;21.47;89.22
57048;BME280;42934;54.294;18.598;2022-08-21T09:13:42;100450.47;;;21.45;89.50
57048;BME280;42934;54.294;18.598;2022-08-21T09:16:19;100455.94;;;21.44;89.56
57048;BME280;42934;54.294;18.598;2022-08-21T09:18:57;100464.81;;;21.44;89.37
57048;BME280;42934;54.294;18.598;2022-08-21T09:21:47;100464.44;;;21.49;89.16
57048;BME280;42934;54.294;18.598;2022-08-21T09:24:29;100462.84;;;21.46;89.09
57048;BME280;42934;54.294;18.598;2022-08-21T09:27:06;100460.31;;;21.45;89.25
57048;BME280;42934;54.294;18.598;2022-08-21T09:29:44;100463.00;;;21.45;89.33
57048;BME280;42934;54.294;18.598;2022-08-21T09:32:18;100454.97;;;21.45;89.07
57048;BME280;42934;54.294;18.598;2022-08-21T09:34:59;100470.03;;;21.46;89.39
57048;BME280;42934;54.294;18.598;2022-08-21T09:37:30;100476.22;;;21.46;89.13
57048;BME280;42934;54.294;18.598;2022-08-21T09:40:13;100463.69;;;21.47;89.03
57048;BME280;42934;54.294;18.598;2022-08-21T09:42:55;100458.25;;;21.48;89.14
57048;BME280;42934;54.294;18.598;2022-08-21T09:45:25;100461.91;;;21.47;88.97
57048;BME280;42934;54.294;18.598;2022-08-21T09:48:11;100463.59;;;21.48;89.14
57048;BME280;42934;54.294;18.598;2022-08-21T09:50:43;100461.03;;;21.47;89.08
57048;BME280;42934;54.294;18.598;2022-08-21T09:53:18;100470.88;;;21.46;89.03
57048;BME280;42934;54.294;18.598;2022-08-21T09:55:52;100484.22;;;21.46;89.14
57048;BME280;42934;54.294;18.598;2022-08-21T09:58:42;100487.72;;;21.47;89.27
57048;BME280;42934;54.294;18.598;2022-08-21T10:01:15;100487.47;;;21.50;89.26
57048;BME280;42934;54.294;18.598;2022-08-21T10:03:45;100484.22;;;21.46;89.34
57048;BME280;42934;54.294;18.598;2022-08-21T10:06:23;100488.59;;;21.47;89.65
57048;BME280;42934;54.294;18.598;2022-08-21T10:09:04;100485.06;;;21.47;89.43
57048;BME280;42934;54.294;18.598;2022-08-21T10:11:35;100483.38;;;21.46;89.46
57048;BME280;42934;54.294;18.598;2022-08-21T10:14:14;100467.09;;;21.49;89.62
57048;BME280;42934;54.294;18.598;2022-08-21T10:16:54;100473.28;;;21.49;89.40
57048;BME280;42934;54.294;18.598;2022-08-21T10:19:34;100465.41;;;21.48;89.36
57048;BME280;42934;54.294;18.598;2022-08-21T10:22:14;100470.75;;;21.48;89.17
57048;BME280;42934;54.294;18.598;2022-08-21T10:24:52;100467.09;;;21.49;89.13
57048;BME280;42934;54.294;18.598;2022-08-21T10:27:34;100484.22;;;21.46;88.58
57048;BME280;42934;54.294;18.598;2022-08-21T10:30:11;100477.31;;;21.44;88.70
57048;BME280;42934;54.294;18.598;2022-08-21T10:33:02;100487.03;;;21.45;88.93
57048;BME280;42934;54.294;18.598;2022-08-21T10:35:40;100492.38;;;21.45;88.72
57048;BME280;42934;54.294;18.598;2022-08-21T10:41:43;100488.38;;;21.39;88.00
57048;BME280;42934;54.294;18.598;2022-08-21T10:44:25;100496.38;;;21.39;88.18
57048;BME280;42934;54.294;18.598;2022-08-21T10:47:01;100489.31;;;21.38;88.08
57048;BME280;42934;54.294;18.598;2022-08-21T10:49:40;100496.50;;;21.38;87.91
57048;BME280;42934;54.294;18.598;2022-08-21T10:52:34;100489.06;;;21.41;88.00
57048;BME280;42934;54.294;18.598;2022-08-21T10:55:15;100488.63;;;21.36;87.50
57048;BME280;42934;54.294;18.598;2022-08-21T10:57:50;100491.28;;;21.36;87.74
57048;BME280;42934;54.294;18.598;2022-08-21T11:00:22;100493.09;;;21.36;87.70
57048;BME280;42934;54.294;18.598;2022-08-21T11:02:58;100499.16;;;21.38;87.86
57048;BME280;42934;54.294;18.598;2022-08-21T11:05:35;100494.81;;;21.37;87.66
57048;BME280;42934;54.294;18.598;2022-08-21T11:08:12;100510.84;;;21.37;87.67
57048;BME280;42934;54.294;18.598;2022-08-21T11:10:46;100503.88;;;21.34;87.61
57048;BME280;42934;54.294;18.598;2022-08-21T11:13:31;100503.03;;;21.33;87.34
57048;BME280;42934;54.294;18.598;2022-08-21T11:16:10;100510.31;;;21.31;87.35
57048;BME280;42934;54.294;18.598;2022-08-21T11:18:49;100506.91;;;21.29;87.00
57048;BME280;42934;54.294;18.598;2022-08-21T11:21:32;100516.63;;;21.30;86.71
57048;BME280;42934;54.294;18.598;2022-08-21T11:24:24;100512.25;;;21.29;86.72
57048;BME280;42934;54.294;18.598;2022-08-21T11:26:59;100519.66;;;21.26;86.71
57048;BME280;42934;54.294;18.598;2022-08-21T11:29:35;100520.88;;;21.22;86.24
57048;BME280;42934;54.294;18.598;2022-08-21T11:32:21;100531.69;;;21.20;86.28
57048;BME280;42934;54.294;18.598;2022-08-21T11:35:02;100533.75;;;21.17;86.30
57048;BME280;42934;54.294;18.598;2022-08-21T11:37:45;100525.00;;;21.15;86.25
57048;BME280;42934;54.294;18.598;2022-08-21T11:40:30;100542.97;;;21.13;86.08
57048;BME280;42934;54.294;18.598;2022-08-21T11:43:10;100537.88;;;21.09;86.19
57048;BME280;42934;54.294;18.598;2022-08-21T11:45:45;100538.97;;;21.07;86.13
57048;BME280;42934;54.294;18.598;2022-08-21T11:48:31;100545.16;;;21.07;86.15
57048;BME280;42934;54.294;18.598;2022-08-21T11:51:10;100540.78;;;21.06;85.94
57048;BME280;42934;54.294;18.598;2022-08-21T11:53:46;100544.41;;;21.05;85.95
57048;BME280;42934;54.294;18.598;2022-08-21T11:56:24;100545.50;;;21.03;86.04
57048;BME280;42934;54.294;18.598;2022-08-21T11:58:58;100541.13;;;21.02;86.12
57048;BME280;42934;54.294;18.598;2022-08-21T12:01:32;100549.16;;;21.02;86.08
57048;BME280;42934;54.294;18.598;2022-08-21T12:04:06;100543.81;;;21.02;86.02
57048;BME280;42934;54.294;18.598;2022-08-21T12:06:40;100548.31;;;21.01;85.67
57048;BME280;42934;54.294;18.598;2022-08-21T12:09:29;100546.63;;;21.00;86.11
57048;BME280;42934;54.294;18.598;2022-08-21T12:12:06;100539.44;;;21.01;85.83
57048;BME280;42934;54.294;18.598;2022-08-21T12:14:43;100544.78;;;21.01;85.68
57048;BME280;42934;54.294;18.598;2022-08-21T12:17:19;100536.03;;;20.99;85.86
57048;BME280;42934;54.294;18.598;2022-08-21T12:19:58;100530.84;;;20.97;86.09
57048;BME280;42934;54.294;18.598;2022-08-21T12:22:39;100525.50;;;20.97;85.87
57048;BME280;42934;54.294;18.598;2022-08-21T12:25:15;100528.03;;;20.99;85.97
57048;BME280;42934;54.294;18.598;2022-08-21T12:27:53;100530.94;;;20.96;86.09
57048;BME280;42934;54.294;18.598;2022-08-21T12:30:34;100532.53;;;20.98;85.77
57048;BME280;42934;54.294;18.598;2022-08-21T12:33:06;100540.03;;;20.93;85.12
57048;BME280;42934;54.294;18.598;2022-08-21T12:35:48;100535.69;;;20.92;84.98
57048;BME280;42934;54.294;18.598;2022-08-21T12:38:23;100546.47;;;20.91;84.71
57048;BME280;42934;54.294;18.598;2022-08-21T12:40:55;100554.47;;;20.91;84.61
57048;BME280;42934;54.294;18.598;2022-08-21T12:43:29;100549.25;;;20.89;84.44
57048;BME280;42934;54.294;18.598;2022-08-21T12:45:59;100561.75;;;20.89;84.23
57048;BME280;42934;54.294;18.598;2022-08-21T12:48:35;100554.00;;;20.85;84.36
57048;BME280;42934;54.294;18.598;2022-08-21T12:51:11;100559.19;;;20.87;84.31
57048;BME280;42934;54.294;18.598;2022-08-21T12:53:45;100561.13;;;20.85;84.19
57048;BME280;42934;54.294;18.598;2022-08-21T12:56:19;100557.75;;;20.83;84.14
57048;BME280;42934;54.294;18.598;2022-08-21T12:58:51;100567.56;;;20.82;84.46
57048;BME280;42934;54.294;18.598;2022-08-21T13:01:24;100569.28;;;20.83;84.56
57048;BME280;42934;54.294;18.598;2022-08-21T13:03:57;100572.91;;;20.82;84.60
57048;BME280;42934;54.294;18.598;2022-08-21T13:06:38;100575.59;;;20.82;84.52
57048;BME280;42934;54.294;18.598;2022-08-21T13:09:12;100578.34;;;20.81;84.35
57048;BME280;42934;54.294;18.598;2022-08-21T13:11:49;100571.44;;;20.78;84.24
57048;BME280;42934;54.294;18.598;2022-08-21T13:14:26;100578.34;;;20.81;84.60
57048;BME280;42934;54.294;18.598;2022-08-21T13:16:59;100583.09;;;20.77;84.50